createdAt,value
2023-05-25T00:02:18.182Z,10.41
2023-05-25T00:07:18.036Z,10.33
2023-05-25T00:12:17.957Z,10.26
2023-05-25T00:17:17.918Z,10.14
2023-05-25T00:22:17.846Z,10.14
2023-05-25T00:27:17.798Z,10.14
2023-05-25T00:32:17.708Z,10.05
2023-05-25T00:37:17.622Z,10.04
2023-05-25T00:42:17.613Z,9.97
2023-05-25T00:47:17.532Z,9.91
2023-05-25T00:52:17.524Z,9.86
2023-05-25T00:57:17.456Z,9.81
2023-05-25T01:02:17.693Z,9.66
2023-05-25T01:07:17.420Z,9.61
2023-05-25T01:12:17.289Z,9.50
2023-05-25T01:17:17.393Z,9.56
2023-05-25T01:22:17.220Z,9.53
2023-05-25T01:27:17.190Z,9.50
2023-05-25T01:32:18.315Z,9.40
2023-05-25T01:37:17.061Z,9.36
2023-05-25T01:42:16.949Z,9.28
2023-05-25T01:47:16.917Z,9.24
2023-05-25T01:52:16.858Z,9.13
2023-05-25T01:57:16.803Z,9.10
2023-05-25T02:02:16.717Z,9.05
2023-05-25T02:07:16.692Z,9.01
2023-05-25T02:12:16.625Z,8.98
2023-05-25T02:17:16.588Z,8.87
2023-05-25T02:22:16.522Z,8.81
2023-05-25T02:27:16.577Z,8.77
2023-05-25T02:32:16.502Z,8.73
2023-05-25T02:37:16.447Z,8.56
2023-05-25T02:42:16.409Z,8.66
2023-05-25T02:47:16.310Z,8.62
2023-05-25T02:52:16.271Z,8.56
2023-05-25T02:57:16.197Z,8.48
2023-05-25T03:02:16.188Z,8.47
2023-05-25T03:07:16.151Z,8.48
2023-05-25T03:12:15.974Z,8.43
2023-05-25T03:17:15.994Z,8.38
2023-05-25T03:22:15.864Z,8.29
2023-05-25T03:27:15.874Z,8.33
2023-05-25T03:32:15.881Z,8.26
2023-05-25T03:37:15.721Z,8.29
2023-05-25T03:42:15.762Z,8.26
2023-05-25T03:47:15.709Z,8.22
2023-05-25T03:52:15.553Z,8.16
2023-05-25T03:57:15.601Z,8.23
2023-05-25T04:02:15.500Z,8.26
2023-05-25T04:07:15.492Z,8.30
2023-05-25T04:12:15.445Z,8.37
2023-05-25T04:17:15.349Z,8.45
2023-05-25T04:22:15.258Z,8.53
2023-05-25T04:27:15.223Z,8.66
2023-05-25T04:32:15.187Z,8.83
2023-05-25T04:37:15.035Z,8.94
2023-05-25T04:42:15.013Z,9.04
2023-05-25T04:47:14.946Z,9.26
2023-05-25T04:52:14.924Z,9.53
2023-05-25T04:57:14.885Z,9.65
2023-05-25T05:02:14.915Z,9.96
2023-05-25T05:07:14.834Z,10.26
2023-05-25T05:12:15.710Z,10.26
2023-05-25T05:17:14.730Z,10.40
2023-05-25T05:22:14.618Z,10.68
2023-05-25T05:27:14.564Z,11.04
2023-05-25T05:32:14.561Z,11.24
2023-05-25T05:37:14.543Z,11.64
2023-05-25T05:42:14.390Z,12.01
2023-05-25T05:47:14.362Z,12.35
2023-05-25T05:52:14.247Z,12.65
2023-05-25T05:57:14.186Z,12.90
2023-05-25T06:02:14.183Z,13.36
2023-05-25T06:07:14.104Z,13.54
2023-05-25T06:12:14.060Z,13.69
2023-05-25T06:17:13.999Z,13.79
2023-05-25T06:22:14.052Z,14.02
2023-05-25T06:27:13.954Z,14.50
2023-05-25T06:32:14.039Z,14.84
2023-05-25T06:37:13.767Z,14.96
2023-05-25T06:42:13.793Z,14.99
2023-05-25T06:47:13.728Z,14.65
2023-05-25T06:52:13.627Z,14.89
2023-05-25T06:57:14.090Z,15.50
2023-05-25T07:02:13.497Z,15.69
2023-05-25T07:07:13.545Z,15.89
2023-05-25T07:12:13.358Z,15.87
2023-05-25T07:17:13.338Z,15.86
2023-05-25T07:22:13.286Z,16.71
2023-05-25T07:27:13.251Z,16.09
2023-05-25T07:32:13.185Z,16.28
2023-05-25T07:37:13.172Z,16.83
2023-05-25T07:42:13.039Z,16.64
2023-05-25T07:47:14.057Z,17.14
2023-05-25T07:52:12.972Z,17.66
2023-05-25T07:57:12.968Z,17.40
2023-05-25T08:02:12.955Z,17.30
2023-05-25T08:07:12.900Z,17.36
2023-05-25T08:12:37.948Z,17.44
2023-05-25T08:17:13.895Z,17.81
2023-05-25T08:22:12.688Z,17.64
2023-05-25T08:27:12.607Z,17.95
2023-05-25T08:32:12.511Z,18.27
2023-05-25T08:37:12.462Z,17.95
2023-05-25T08:42:12.386Z,17.92
2023-05-25T08:47:12.433Z,18.51
2023-05-25T08:52:12.292Z,18.39
2023-05-25T08:57:12.393Z,17.97
2023-05-25T09:02:15.761Z,18.37
2023-05-25T09:07:12.296Z,18.50
2023-05-25T09:12:12.186Z,18.55
2023-05-25T09:17:12.090Z,19.08
2023-05-25T09:22:16.276Z,19.29
2023-05-25T09:27:12.958Z,18.95
2023-05-25T09:32:12.023Z,19.16
2023-05-25T09:37:11.969Z,19.25
2023-05-25T09:42:11.785Z,18.85
2023-05-25T09:47:11.711Z,18.44
2023-05-25T09:52:11.644Z,18.91
2023-05-25T09:57:11.649Z,18.73
2023-05-25T10:02:11.587Z,18.62
2023-05-25T10:07:11.475Z,18.11
2023-05-25T10:12:11.483Z,18.23
2023-05-25T10:17:11.507Z,17.66
2023-05-25T10:22:11.483Z,17.68
2023-05-25T10:27:25.667Z,17.41
2023-05-25T10:32:12.378Z,17.71
2023-05-25T10:37:11.135Z,17.90
2023-05-25T10:42:11.183Z,18.30
2023-05-25T10:47:11.206Z,17.81
2023-05-25T10:52:11.086Z,17.25
2023-05-25T10:57:11.092Z,17.68
2023-05-25T11:02:11.011Z,18.25
2023-05-25T11:07:10.925Z,18.27
2023-05-25T11:12:10.788Z,18.67
2023-05-25T11:17:11.089Z,18.58
2023-05-25T11:22:10.689Z,18.39
2023-05-25T11:27:10.653Z,18.75
2023-05-25T11:32:10.591Z,19.46
2023-05-25T11:37:12.222Z,19.81
2023-05-25T11:42:10.471Z,19.77
2023-05-25T11:47:10.488Z,19.37
2023-05-25T11:52:12.460Z,19.21
2023-05-25T11:57:10.350Z,19.39
2023-05-25T12:02:10.331Z,19.96
2023-05-25T12:07:10.318Z,19.76
2023-05-25T12:12:10.213Z,19.94
2023-05-25T12:17:10.294Z,19.74
2023-05-25T12:22:10.081Z,19.33
2023-05-25T12:27:11.105Z,19.29
2023-05-25T12:32:10.097Z,19.11
2023-05-25T12:37:10.042Z,19.77
2023-05-25T12:42:09.926Z,19.86
2023-05-25T12:47:09.810Z,20.01
2023-05-25T12:52:09.762Z,19.76
2023-05-25T12:57:10.790Z,19.39
2023-05-25T13:02:18.624Z,19.46
2023-05-25T13:07:09.594Z,19.86
2023-05-25T13:12:09.536Z,19.59
2023-05-25T13:17:09.475Z,19.62
2023-05-25T13:22:09.470Z,20.13
2023-05-25T13:27:09.461Z,19.55
2023-05-25T13:32:09.497Z,19.50
2023-05-25T13:37:09.285Z,19.68
2023-05-25T13:42:09.215Z,20.10
2023-05-25T13:47:09.181Z,20.11
2023-05-25T13:52:09.090Z,20.76
2023-05-25T13:57:09.007Z,20.64
2023-05-25T14:02:09.324Z,20.50
2023-05-25T14:07:09.211Z,19.88
2023-05-25T14:12:09.097Z,19.65
2023-05-25T14:17:09.057Z,20.39
2023-05-25T14:22:13.944Z,20.76
2023-05-25T14:27:10.048Z,20.54
2023-05-25T14:32:08.975Z,19.88
2023-05-25T14:37:09.805Z,20.21
2023-05-25T14:42:08.641Z,20.28
2023-05-25T14:47:08.662Z,20.84
2023-05-25T14:52:08.616Z,21.79
2023-05-25T14:57:08.517Z,21.56
2023-05-25T15:02:08.459Z,20.88
2023-05-25T15:07:08.817Z,21.98
2023-05-25T15:12:08.259Z,22.82
2023-05-25T15:17:08.245Z,23.97
2023-05-25T15:22:08.221Z,24.35
2023-05-25T15:27:08.109Z,24.60
2023-05-25T15:32:08.361Z,24.13
2023-05-25T15:37:08.089Z,23.72
2023-05-25T15:42:07.976Z,22.10
2023-05-25T15:47:07.967Z,22.82
2023-05-25T15:52:07.890Z,21.38
2023-05-25T15:57:07.802Z,20.14
2023-05-25T16:02:07.958Z,19.98
2023-05-25T16:07:07.787Z,19.83
2023-05-25T16:12:07.684Z,19.71
2023-05-25T16:17:07.612Z,19.83
2023-05-25T16:22:07.677Z,19.71
2023-05-25T16:27:07.569Z,19.62
2023-05-25T16:32:07.574Z,19.37
2023-05-25T16:37:07.415Z,19.51
2023-05-25T16:42:07.304Z,19.07
2023-05-25T16:47:07.324Z,19.13
2023-05-25T16:52:07.282Z,19.04
2023-05-25T16:57:07.170Z,18.50
2023-05-25T17:02:07.112Z,18.70
2023-05-25T17:07:07.016Z,18.81
2023-05-25T17:12:07.311Z,18.70
2023-05-25T17:17:07.480Z,18.91
2023-05-25T17:22:06.911Z,18.67
2023-05-25T17:27:06.845Z,19.00
2023-05-25T17:32:06.780Z,19.00
2023-05-25T17:37:06.851Z,18.78
2023-05-25T17:42:06.772Z,18.85
2023-05-25T17:47:09.184Z,18.60
2023-05-25T17:52:06.746Z,18.29
2023-05-25T17:57:06.624Z,18.47
2023-05-25T18:02:06.799Z,18.51
2023-05-25T18:07:07.582Z,18.37
2023-05-25T18:12:07.534Z,18.39
2023-05-25T18:17:06.394Z,18.33
2023-05-25T18:22:06.294Z,18.08
2023-05-25T18:27:06.402Z,17.81
2023-05-25T18:32:06.263Z,17.71
2023-05-25T18:37:06.235Z,17.77
2023-05-25T18:42:06.201Z,17.71
2023-05-25T18:47:06.013Z,17.66
2023-05-25T18:52:05.911Z,17.58
2023-05-25T18:57:05.872Z,17.46
2023-05-25T19:02:14.694Z,17.55
2023-05-25T19:07:05.702Z,17.15
2023-05-25T19:12:05.656Z,16.91
2023-05-25T19:17:05.709Z,16.67
2023-05-25T19:22:05.640Z,16.46
2023-05-25T19:27:05.541Z,16.25
2023-05-25T19:32:05.678Z,16.02
2023-05-25T19:37:11.553Z,15.87
2023-05-25T19:42:06.344Z,15.74
2023-05-25T19:47:05.392Z,15.53
2023-05-25T19:52:05.312Z,15.39
2023-05-25T19:57:06.233Z,15.19
2023-05-25T20:02:05.201Z,15.03
2023-05-25T20:07:05.168Z,14.84
2023-05-25T20:12:05.044Z,14.69
2023-05-25T20:17:04.939Z,14.57
2023-05-25T20:22:05.023Z,14.42
2023-05-25T20:27:04.907Z,14.35
2023-05-25T20:32:06.061Z,14.22
2023-05-25T20:37:11.723Z,14.14
2023-05-25T20:42:05.004Z,13.99
2023-05-25T20:47:04.703Z,13.81
2023-05-25T20:52:04.639Z,13.70
2023-05-25T20:57:04.598Z,13.55
2023-05-25T21:02:04.730Z,13.52
2023-05-25T21:07:04.486Z,13.32
2023-05-25T21:12:04.359Z,13.26
2023-05-25T21:17:04.373Z,13.22
2023-05-25T21:22:04.292Z,13.08
2023-05-25T21:27:04.174Z,12.93
2023-05-25T21:32:04.126Z,12.85
2023-05-25T21:37:04.119Z,12.72
2023-05-25T21:42:04.033Z,12.67
2023-05-25T21:47:04.217Z,12.50
2023-05-25T21:52:03.934Z,12.53
2023-05-25T21:57:03.879Z,12.49
2023-05-25T22:02:03.962Z,12.49
2023-05-25T22:07:03.883Z,12.57
2023-05-25T22:12:03.690Z,12.65
2023-05-25T22:17:03.838Z,12.59
2023-05-25T22:22:03.744Z,12.67
2023-05-25T22:27:03.547Z,12.64
2023-05-25T22:32:03.515Z,12.57
2023-05-25T22:37:03.423Z,12.52
2023-05-25T22:42:03.404Z,12.45
2023-05-25T22:47:03.317Z,12.46
2023-05-25T22:52:03.259Z,12.45
2023-05-25T22:57:03.236Z,12.42
2023-05-25T23:02:03.213Z,12.42
2023-05-25T23:07:03.114Z,12.37
2023-05-25T23:12:03.074Z,12.35
2023-05-25T23:17:03.056Z,12.31
2023-05-25T23:22:03.083Z,12.24
2023-05-25T23:27:02.897Z,12.24
2023-05-25T23:32:03.006Z,12.19
2023-05-25T23:37:04.979Z,12.17
2023-05-25T23:42:02.746Z,12.13
2023-05-25T23:47:02.722Z,12.04
2023-05-25T23:52:02.640Z,11.91
2023-05-25T23:57:02.655Z,11.79
